createdAt,value
2017-09-02T00:02:12.867Z,85.07
2017-09-02T00:04:40.272Z,85.35
2017-09-02T00:07:07.663Z,85.15
2017-09-02T00:09:35.103Z,85.23
2017-09-02T00:12:02.498Z,85.11
2017-09-02T00:14:29.891Z,85.08
2017-09-02T00:16:57.398Z,85.03
2017-09-02T00:19:24.790Z,85.10
2017-09-02T00:21:52.187Z,85.19
2017-09-02T00:24:19.903Z,85.05
2017-09-02T00:26:47.300Z,85.06
2017-09-02T00:29:14.690Z,85.16
2017-09-02T00:31:42.199Z,85.35
2017-09-02T00:34:09.594Z,85.27
2017-09-02T00:36:36.986Z,84.93
2017-09-02T00:39:04.495Z,84.90
2017-09-02T00:41:31.894Z,84.81
2017-09-02T00:43:59.296Z,84.80
2017-09-02T00:46:26.735Z,84.94
2017-09-02T00:48:54.126Z,84.94
2017-09-02T00:51:21.531Z,84.98
2017-09-02T00:53:49.186Z,85.04
2017-09-02T00:56:16.588Z,85.00
2017-09-02T00:58:43.978Z,85.04
2017-09-02T01:01:11.384Z,85.13
2017-09-02T01:03:38.779Z,85.31
2017-09-02T01:06:06.174Z,85.45
2017-09-02T01:08:33.678Z,85.52
2017-09-02T01:11:01.076Z,85.51
2017-09-02T01:13:28.466Z,85.30
2017-09-02T01:15:56.106Z,85.24
2017-09-02T01:18:23.494Z,85.10
2017-09-02T01:20:50.923Z,85.01
2017-09-02T01:23:18.714Z,85.09
2017-09-02T01:25:46.102Z,85.13
2017-09-02T01:28:13.528Z,84.60
2017-09-02T01:30:41.191Z,84.50
2017-09-02T01:33:08.611Z,84.62
2017-09-02T01:35:36.016Z,84.78
2017-09-02T01:38:03.589Z,84.88
2017-09-02T01:40:30.982Z,84.91
2017-09-02T01:42:58.370Z,84.27
2017-09-02T01:45:25.908Z,84.14
2017-09-02T01:47:53.303Z,84.10
2017-09-02T01:50:20.697Z,84.32
2017-09-02T01:52:48.212Z,84.35
2017-09-02T01:55:15.610Z,84.42
2017-09-02T01:57:43.050Z,84.92
2017-09-02T02:00:10.740Z,85.12
2017-09-02T02:02:38.139Z,85.64
2017-09-02T02:05:05.531Z,85.48
2017-09-02T02:07:33.318Z,85.27
2017-09-02T02:10:00.714Z,85.18
2017-09-02T02:12:28.105Z,85.51
2017-09-02T02:14:55.622Z,85.98
2017-09-02T02:17:23.019Z,85.63
2017-09-02T02:19:50.418Z,85.37
2017-09-02T02:22:18.359Z,85.35
2017-09-02T02:24:45.755Z,84.60
2017-09-02T02:27:13.153Z,84.89
2017-09-02T02:29:40.566Z,84.97
2017-09-02T02:32:07.974Z,85.14
2017-09-02T02:34:35.368Z,84.64
2017-09-02T02:37:02.924Z,84.18
2017-09-02T02:39:30.335Z,84.33
2017-09-02T02:41:57.721Z,84.44
2017-09-02T02:44:25.267Z,84.17
2017-09-02T02:46:52.667Z,84.79
2017-09-02T02:49:20.063Z,84.66
2017-09-02T02:51:47.619Z,84.18
2017-09-02T02:54:15.027Z,83.79
2017-09-02T02:56:42.423Z,83.76
2017-09-02T02:59:10.134Z,83.82
2017-09-02T03:01:37.535Z,83.50
2017-09-02T03:04:04.934Z,83.20
2017-09-02T03:06:32.357Z,83.01
2017-09-02T03:08:59.766Z,82.95
2017-09-02T03:11:27.149Z,82.52
2017-09-02T03:13:54.882Z,82.33
2017-09-02T03:16:22.278Z,82.24
2017-09-02T03:18:49.674Z,81.99
2017-09-02T03:21:17.087Z,81.70
2017-09-02T03:23:44.483Z,81.74
2017-09-02T03:26:11.878Z,81.70
2017-09-02T03:28:39.615Z,81.59
2017-09-02T03:31:07.032Z,81.31
2017-09-02T03:33:34.419Z,81.34
2017-09-02T03:36:01.939Z,81.31
2017-09-02T03:38:29.335Z,81.51
2017-09-02T03:40:56.814Z,81.61
2017-09-02T03:43:24.257Z,81.18
2017-09-02T03:45:51.656Z,81.29
2017-09-02T03:48:19.055Z,81.04
2017-09-02T03:50:46.607Z,80.38
2017-09-02T03:53:14.014Z,81.32
2017-09-02T03:55:41.415Z,81.64
2017-09-02T03:58:08.924Z,82.03
2017-09-02T04:00:36.318Z,81.80
2017-09-02T04:03:03.717Z,81.36
2017-09-02T04:05:31.479Z,81.40
2017-09-02T04:07:58.874Z,81.50
2017-09-02T04:10:26.271Z,81.36
2017-09-02T04:12:54.040Z,81.52
2017-09-02T04:15:21.442Z,81.86
2017-09-02T04:17:48.843Z,81.69
2017-09-02T04:20:16.394Z,81.66
2017-09-02T04:22:43.791Z,81.87
2017-09-02T04:25:11.191Z,81.98
2017-09-02T04:27:38.755Z,82.16
2017-09-02T04:30:06.166Z,82.18
2017-09-02T04:32:33.572Z,82.12
2017-09-02T04:35:01.117Z,82.07
2017-09-02T04:37:28.522Z,82.14
2017-09-02T04:39:55.930Z,82.19
2017-09-02T04:42:23.346Z,82.05
2017-09-02T04:44:50.751Z,82.17
2017-09-02T04:47:18.147Z,82.13
2017-09-02T04:49:45.663Z,82.07
2017-09-02T04:52:13.059Z,82.27
2017-09-02T04:54:40.468Z,82.25
2017-09-02T04:57:07.887Z,82.16
2017-09-02T04:59:35.282Z,82.16
2017-09-02T05:02:02.681Z,81.83
2017-09-02T05:04:30.082Z,81.78
2017-09-02T05:06:57.499Z,81.72
2017-09-02T05:09:24.892Z,82.13
2017-09-02T05:11:52.639Z,82.19
2017-09-02T05:14:20.042Z,82.58
2017-09-02T05:16:47.470Z,82.83
2017-09-02T05:19:15.047Z,82.63
2017-09-02T05:21:42.451Z,82.72
2017-09-02T05:24:09.850Z,82.59
2017-09-02T05:26:37.508Z,82.44
2017-09-02T05:29:04.899Z,82.39
2017-09-02T05:31:32.290Z,82.48
2017-09-02T05:33:59.702Z,82.65
2017-09-02T05:36:27.099Z,82.64
2017-09-02T05:38:54.494Z,82.50
2017-09-02T05:41:22.048Z,82.34
2017-09-02T05:43:49.468Z,82.46
2017-09-02T05:46:16.863Z,82.56
2017-09-02T05:48:44.326Z,82.01
2017-09-02T05:51:11.726Z,81.94
2017-09-02T05:53:39.165Z,81.29
2017-09-02T05:56:06.715Z,81.29
2017-09-02T05:58:34.156Z,81.27
2017-09-02T06:01:01.550Z,81.52
2017-09-02T06:03:28.970Z,81.63
2017-09-02T06:05:56.370Z,82.03
2017-09-02T06:08:23.769Z,81.39
2017-09-02T06:10:51.187Z,81.15
2017-09-02T06:13:18.608Z,81.41
2017-09-02T06:15:46.854Z,81.93
2017-09-02T06:18:14.271Z,81.93
2017-09-02T06:20:41.675Z,82.23
2017-09-02T06:23:09.066Z,82.93
2017-09-02T06:25:36.488Z,83.01
2017-09-02T06:28:03.883Z,82.87
2017-09-02T06:30:31.280Z,82.83
2017-09-02T06:32:58.690Z,83.02
2017-09-02T06:35:26.088Z,82.97
2017-09-02T06:37:53.486Z,83.03
2017-09-02T06:40:20.936Z,83.03
2017-09-02T06:42:48.331Z,83.09
2017-09-02T06:45:15.738Z,82.93
2017-09-02T06:47:43.278Z,82.59
2017-09-02T06:50:10.671Z,82.88
2017-09-02T06:52:38.071Z,82.82
2017-09-02T06:55:05.548Z,83.27
2017-09-02T06:57:32.927Z,83.29
2017-09-02T07:00:00.347Z,82.95
2017-09-02T07:02:27.915Z,81.87
2017-09-02T07:04:55.315Z,81.52
2017-09-02T07:07:22.703Z,81.28
2017-09-02T07:09:50.121Z,80.92
2017-09-02T07:12:17.527Z,81.92
2017-09-02T07:14:44.944Z,80.84
2017-09-02T07:17:12.360Z,80.46
2017-09-02T07:19:39.766Z,80.80
2017-09-02T07:22:07.162Z,80.40
2017-09-02T07:24:34.570Z,80.63
2017-09-02T07:27:01.964Z,80.48
2017-09-02T07:29:29.358Z,78.31
2017-09-02T07:31:56.826Z,77.60
2017-09-02T07:34:24.228Z,77.41
2017-09-02T07:36:51.627Z,76.70
2017-09-02T07:39:19.035Z,75.76
2017-09-02T07:41:46.430Z,75.97
2017-09-02T07:44:13.826Z,75.26
2017-09-02T07:46:41.335Z,72.27
2017-09-02T07:49:08.735Z,72.92
2017-09-02T07:51:36.126Z,72.07
2017-09-02T07:54:03.674Z,71.23
2017-09-02T07:56:31.070Z,71.13
2017-09-02T07:58:58.471Z,69.14
2017-09-02T08:01:26.267Z,70.29
2017-09-02T08:03:53.663Z,70.27
2017-09-02T08:06:21.063Z,71.00
2017-09-02T08:08:48.613Z,69.94
2017-09-02T08:11:16.010Z,69.93
2017-09-02T08:13:43.415Z,70.25
2017-09-02T08:16:11.106Z,69.57
2017-09-02T08:18:38.502Z,68.86
2017-09-02T08:21:05.894Z,68.35
2017-09-02T08:23:33.322Z,67.83
2017-09-02T08:26:00.727Z,67.37
2017-09-02T08:28:28.118Z,68.70
2017-09-02T08:30:55.528Z,70.02
2017-09-02T08:33:22.922Z,67.95
2017-09-02T08:35:50.327Z,67.26
2017-09-02T08:38:17.831Z,68.78
2017-09-02T08:40:45.226Z,67.27
2017-09-02T08:43:12.618Z,68.72
2017-09-02T08:45:40.063Z,66.86
2017-09-02T08:48:07.462Z,67.02
2017-09-02T08:50:34.861Z,66.46
2017-09-02T08:53:02.362Z,64.63
2017-09-02T08:55:29.758Z,63.99
2017-09-02T08:57:57.158Z,65.58
2017-09-02T09:00:24.608Z,64.40
2017-09-02T09:02:51.998Z,64.33
2017-09-02T09:05:19.452Z,63.86
2017-09-02T09:07:47.003Z,62.04
2017-09-02T09:10:14.399Z,62.27
2017-09-02T09:12:41.800Z,62.24
2017-09-02T09:15:09.234Z,62.18
2017-09-02T09:17:36.640Z,61.06
2017-09-02T09:20:04.031Z,61.48
2017-09-02T09:22:31.542Z,63.01
2017-09-02T09:24:58.941Z,61.40
2017-09-02T09:27:26.326Z,62.61
2017-09-02T09:29:53.734Z,63.98
2017-09-02T09:32:21.163Z,62.99
2017-09-02T09:34:48.567Z,62.08
2017-09-02T09:37:16.123Z,63.17
2017-09-02T09:39:43.519Z,64.14
2017-09-02T09:42:10.915Z,64.58
2017-09-02T09:44:38.859Z,65.12
2017-09-02T09:47:06.277Z,64.83
2017-09-02T09:49:33.663Z,64.37
2017-09-02T09:52:01.069Z,65.65
2017-09-02T09:54:28.462Z,65.36
2017-09-02T09:56:55.859Z,65.77
2017-09-02T09:59:23.610Z,65.65
2017-09-02T10:01:51.002Z,65.34
2017-09-02T10:04:18.394Z,64.55
2017-09-02T10:06:45.946Z,63.68
2017-09-02T10:09:13.347Z,63.38
2017-09-02T10:11:40.743Z,62.59
2017-09-02T10:14:08.290Z,61.07
2017-09-02T10:16:35.687Z,60.46
2017-09-02T10:19:03.089Z,61.37
2017-09-02T10:21:30.590Z,60.30
2017-09-02T10:23:57.986Z,60.32
2017-09-02T10:26:25.382Z,59.10
2017-09-02T10:28:52.798Z,60.03
2017-09-02T10:31:20.186Z,58.72
2017-09-02T10:33:47.663Z,58.54
2017-09-02T10:36:15.463Z,56.63
2017-09-02T10:38:42.858Z,58.04
2017-09-02T10:41:10.251Z,54.70
2017-09-02T10:43:37.754Z,53.93
2017-09-02T10:46:05.147Z,50.15
2017-09-02T10:48:32.547Z,51.20
2017-09-02T10:50:59.958Z,52.09
2017-09-02T10:53:27.354Z,46.20
2017-09-02T10:55:54.762Z,47.18
2017-09-02T10:58:23.168Z,44.91
2017-09-02T11:00:50.559Z,44.67
2017-09-02T11:03:18.030Z,45.22
2017-09-02T11:05:46.527Z,45.74
2017-09-02T11:08:14.371Z,55.91
2017-09-02T11:10:47.013Z,61.57
2017-09-02T11:13:14.475Z,69.71
2017-09-02T11:15:41.866Z,75.34
2017-09-02T11:18:09.266Z,75.29
2017-09-02T11:20:36.874Z,79.53
2017-09-02T11:23:04.272Z,82.01
2017-09-02T11:25:31.666Z,79.52
2017-09-02T11:27:59.218Z,82.33
2017-09-02T11:30:26.618Z,80.79
2017-09-02T11:32:54.018Z,81.39
2017-09-02T11:35:22.635Z,78.30
2017-09-02T11:37:50.047Z,81.82
2017-09-02T11:40:18.486Z,82.21
2017-09-02T11:42:45.993Z,80.19
2017-09-02T11:45:14.295Z,80.66
2017-09-02T11:47:42.656Z,76.03
2017-09-02T11:50:10.209Z,78.28
2017-09-02T11:52:37.603Z,82.48
2017-09-02T11:55:05.006Z,82.52
2017-09-02T11:57:32.558Z,83.10
2017-09-02T11:59:59.966Z,79.96
2017-09-02T12:02:27.351Z,78.83
2017-09-02T12:04:54.909Z,78.36
2017-09-02T12:07:22.310Z,79.29
2017-09-02T12:09:49.707Z,78.53
2017-09-02T12:12:17.156Z,78.34
2017-09-02T12:14:44.576Z,78.77
2017-09-02T12:17:11.985Z,78.27
2017-09-02T12:19:39.541Z,77.25
2017-09-02T12:22:06.943Z,78.25
2017-09-02T12:24:34.339Z,76.98
2017-09-02T12:27:02.150Z,75.84
2017-09-02T12:29:29.538Z,73.97
2017-09-02T12:31:56.939Z,72.94
2017-09-02T12:34:24.643Z,75.76
2017-09-02T12:36:52.038Z,75.88
2017-09-02T12:39:20.255Z,72.45
2017-09-02T12:41:47.798Z,71.23
2017-09-02T12:44:15.201Z,66.14
2017-09-02T12:46:42.615Z,65.88
2017-09-02T12:49:10.039Z,65.92
2017-09-02T12:51:37.447Z,69.82
2017-09-02T12:54:04.839Z,69.46
2017-09-02T12:56:32.406Z,62.53
2017-09-02T12:58:59.812Z,59.68
2017-09-02T13:01:27.217Z,65.84
2017-09-02T13:03:54.655Z,62.70
2017-09-02T13:06:29.557Z,62.52
2017-09-02T13:08:57.305Z,62.28
2017-09-02T13:11:24.715Z,62.05
2017-09-02T13:13:52.116Z,63.22
2017-09-02T13:16:20.070Z,64.01
2017-09-02T13:18:47.470Z,65.12
2017-09-02T13:21:14.867Z,62.64
2017-09-02T13:23:42.286Z,57.75
2017-09-02T13:26:09.686Z,56.68
2017-09-02T13:28:40.855Z,54.22
2017-09-02T13:31:10.542Z,53.74
2017-09-02T13:33:48.159Z,54.90
2017-09-02T13:36:15.902Z,56.94
2017-09-02T13:38:43.299Z,60.14
2017-09-02T13:41:10.702Z,63.12
2017-09-02T13:43:38.250Z,64.52
2017-09-02T13:46:05.650Z,64.69
2017-09-02T13:48:33.050Z,66.08
2017-09-02T13:51:00.474Z,68.61
2017-09-02T13:53:28.804Z,66.44
2017-09-02T13:55:57.154Z,71.91
2017-09-02T13:58:24.707Z,72.03
2017-09-02T14:00:52.098Z,75.62
2017-09-02T14:03:19.574Z,75.32
2017-09-02T14:05:48.585Z,76.37
2017-09-02T14:08:15.972Z,75.14
2017-09-02T14:10:43.399Z,75.52
2017-09-02T14:13:10.987Z,76.03
2017-09-02T14:15:39.107Z,75.88
2017-09-02T14:18:06.502Z,77.13
2017-09-02T14:20:34.566Z,76.29
2017-09-02T14:23:01.964Z,74.17
2017-09-02T14:25:30.014Z,77.09
2017-09-02T14:27:57.434Z,74.48
2017-09-02T14:30:24.836Z,76.26
2017-09-02T14:32:52.865Z,76.91
2017-09-02T14:35:20.258Z,74.55
2017-09-02T14:37:47.822Z,73.64
2017-09-02T14:40:15.244Z,75.43
2017-09-02T14:42:44.798Z,74.89
2017-09-02T14:45:13.131Z,76.93
2017-09-02T14:47:40.526Z,76.72
2017-09-02T14:50:08.026Z,76.70
2017-09-02T14:52:35.418Z,76.36
2017-09-02T14:55:02.810Z,76.98
2017-09-02T14:57:30.216Z,73.84
2017-09-02T14:59:57.598Z,73.72
2017-09-02T15:02:24.990Z,76.73
2017-09-02T15:04:52.765Z,74.99
2017-09-02T15:07:20.167Z,76.71
2017-09-02T15:09:47.858Z,76.57
2017-09-02T15:12:15.468Z,75.80
2017-09-02T15:14:42.877Z,75.64
2017-09-02T15:17:10.272Z,75.86
2017-09-02T15:19:37.787Z,77.11
2017-09-02T15:22:05.239Z,76.21
2017-09-02T15:24:32.640Z,77.24
2017-09-02T15:27:00.154Z,76.38
2017-09-02T15:29:27.545Z,76.13
2017-09-02T15:31:54.935Z,72.99
2017-09-02T15:34:22.378Z,73.26
2017-09-02T15:36:49.778Z,74.26
2017-09-02T15:39:17.179Z,74.35
2017-09-02T15:41:44.596Z,75.32
2017-09-02T15:44:11.992Z,74.06
2017-09-02T15:46:39.398Z,73.08
2017-09-02T15:49:06.955Z,71.07
2017-09-02T15:51:34.348Z,68.61
2017-09-02T15:54:01.750Z,68.92
2017-09-02T15:56:29.538Z,69.28
2017-09-02T15:58:56.936Z,71.43
2017-09-02T16:01:24.338Z,71.05
2017-09-02T16:03:51.753Z,70.93
2017-09-02T16:06:19.153Z,70.87
2017-09-02T16:08:46.551Z,69.09
2017-09-02T16:11:14.131Z,68.14
2017-09-02T16:13:41.523Z,63.60
2017-09-02T16:16:08.916Z,65.30
2017-09-02T16:18:36.352Z,63.53
2017-09-02T16:21:03.804Z,63.71
2017-09-02T16:23:31.191Z,63.23
2017-09-02T16:25:58.635Z,65.33
2017-09-02T16:28:26.032Z,63.19
2017-09-02T16:30:53.439Z,62.93
2017-09-02T16:33:21.191Z,62.03
2017-09-02T16:35:49.079Z,65.74
2017-09-02T16:38:16.463Z,65.54
2017-09-02T16:40:44.014Z,64.55
2017-09-02T16:43:11.398Z,63.00
2017-09-02T16:45:38.800Z,65.58
2017-09-02T16:48:06.346Z,61.26
2017-09-02T16:50:33.729Z,61.46
2017-09-02T16:53:01.118Z,63.38
2017-09-02T16:55:28.663Z,66.13
2017-09-02T16:57:56.068Z,67.66
2017-09-02T17:00:23.466Z,67.96
2017-09-02T17:02:50.926Z,69.28
2017-09-02T17:05:18.323Z,70.78
2017-09-02T17:07:45.718Z,71.84
2017-09-02T17:10:13.130Z,71.86
2017-09-02T17:12:40.527Z,72.24
2017-09-02T17:15:07.920Z,71.70
2017-09-02T17:17:35.427Z,72.72
2017-09-02T17:20:02.814Z,73.48
2017-09-02T17:22:30.210Z,73.88
2017-09-02T17:24:57.750Z,74.21
2017-09-02T17:27:25.154Z,73.60
2017-09-02T17:29:52.560Z,73.65
2017-09-02T17:32:20.070Z,74.04
2017-09-02T17:34:47.467Z,74.41
2017-09-02T17:37:14.871Z,74.92
2017-09-02T17:39:42.285Z,75.68
2017-09-02T17:42:09.690Z,75.92
2017-09-02T17:44:37.101Z,76.58
2017-09-02T17:47:04.655Z,76.87
2017-09-02T17:49:32.054Z,77.23
2017-09-02T17:51:59.455Z,77.71
2017-09-02T17:54:26.873Z,78.53
2017-09-02T17:56:54.266Z,78.99
2017-09-02T17:59:21.667Z,79.58
2017-09-02T18:01:49.210Z,79.85
2017-09-02T18:04:16.610Z,80.24
2017-09-02T18:06:44.006Z,80.62
2017-09-02T18:09:11.519Z,80.42
2017-09-02T18:11:38.907Z,79.17
2017-09-02T18:14:06.298Z,78.53
2017-09-02T18:16:33.704Z,76.96
2017-09-02T18:19:01.103Z,77.22
2017-09-02T18:21:28.506Z,77.02
2017-09-02T18:23:55.947Z,76.52
2017-09-02T18:26:23.346Z,76.62
2017-09-02T18:28:51.403Z,75.65
2017-09-02T18:31:18.858Z,75.53
2017-09-02T18:33:46.263Z,75.87
2017-09-02T18:36:14.559Z,76.52
2017-09-02T18:38:42.561Z,77.58
2017-09-02T18:41:09.943Z,77.82
2017-09-02T18:43:37.340Z,77.92
2017-09-02T18:46:05.369Z,78.19
2017-09-02T18:48:32.802Z,78.76
2017-09-02T18:51:00.247Z,79.20
2017-09-02T18:53:27.838Z,79.83
2017-09-02T18:55:55.234Z,80.31
2017-09-02T18:58:23.334Z,80.42
2017-09-02T19:00:51.034Z,80.74
2017-09-02T19:03:19.258Z,80.79
2017-09-02T19:05:46.674Z,80.69
2017-09-02T19:08:14.223Z,80.79
2017-09-02T19:10:41.627Z,80.94
2017-09-02T19:13:09.029Z,81.35
2017-09-02T19:15:36.819Z,81.31
2017-09-02T19:18:04.213Z,81.09
2017-09-02T19:20:31.603Z,81.29
2017-09-02T19:22:59.166Z,81.48
2017-09-02T19:25:26.556Z,81.77
2017-09-02T19:27:53.966Z,81.91
2017-09-02T19:30:21.518Z,81.97
2017-09-02T19:32:48.915Z,82.06
2017-09-02T19:35:16.312Z,82.04
2017-09-02T19:37:44.183Z,81.97
2017-09-02T19:40:13.359Z,82.07
2017-09-02T19:42:40.758Z,82.04
2017-09-02T19:45:08.263Z,82.13
2017-09-02T19:47:35.856Z,81.92
2017-09-02T19:50:03.259Z,82.00
2017-09-02T19:52:31.523Z,82.14
2017-09-02T19:54:58.914Z,81.92
2017-09-02T19:57:26.323Z,82.12
2017-09-02T19:59:53.830Z,82.25
2017-09-02T20:02:21.230Z,82.30
2017-09-02T20:04:48.631Z,82.47
2017-09-02T20:07:16.050Z,82.69
2017-09-02T20:09:43.445Z,82.92
2017-09-02T20:12:10.842Z,83.23
2017-09-02T20:14:38.288Z,83.47
2017-09-02T20:17:05.654Z,83.68
2017-09-02T20:19:33.051Z,83.58
2017-09-02T20:22:00.467Z,83.58
2017-09-02T20:24:27.859Z,83.78
2017-09-02T20:26:55.265Z,83.85
2017-09-02T20:29:22.815Z,83.86
2017-09-02T20:31:50.210Z,84.24
2017-09-02T20:34:17.615Z,84.26
2017-09-02T20:36:45.171Z,84.30
2017-09-02T20:39:12.594Z,84.09
2017-09-02T20:41:39.992Z,83.99
2017-09-02T20:44:07.555Z,84.75
2017-09-02T20:46:34.955Z,84.77
2017-09-02T20:49:02.351Z,84.87
2017-09-02T20:51:29.787Z,84.60
2017-09-02T20:53:57.167Z,84.43
2017-09-02T20:56:24.569Z,84.64
2017-09-02T20:58:52.067Z,84.94
2017-09-02T21:01:19.464Z,84.91
2017-09-02T21:03:46.866Z,84.96
2017-09-02T21:06:14.429Z,84.76
2017-09-02T21:08:41.826Z,84.84
2017-09-02T21:11:09.223Z,84.92
2017-09-02T21:13:36.784Z,84.97
2017-09-02T21:16:04.181Z,84.81
2017-09-02T21:18:31.578Z,84.55
2017-09-02T21:20:59.151Z,84.58
2017-09-02T21:23:26.547Z,85.15
2017-09-02T21:25:53.953Z,85.06
2017-09-02T21:28:21.554Z,85.26
2017-09-02T21:30:48.959Z,85.20
2017-09-02T21:33:16.351Z,85.58
2017-09-02T21:35:43.912Z,85.78
2017-09-02T21:38:11.299Z,85.91
2017-09-02T21:40:38.698Z,86.01
2017-09-02T21:43:06.209Z,85.78
2017-09-02T21:45:33.606Z,85.67
2017-09-02T21:48:00.998Z,86.51
2017-09-02T21:50:28.558Z,86.41
2017-09-02T21:52:55.950Z,86.12
2017-09-02T21:55:23.350Z,85.88
2017-09-02T21:57:50.864Z,85.77
2017-09-02T22:00:18.267Z,86.68
2017-09-02T22:02:45.667Z,87.14
2017-09-02T22:05:13.091Z,86.98
2017-09-02T22:07:40.487Z,86.82
2017-09-02T22:10:07.886Z,86.59
2017-09-02T22:12:35.322Z,86.29
2017-09-02T22:15:02.722Z,86.08
2017-09-02T22:17:30.119Z,86.19
2017-09-02T22:19:57.564Z,86.44
2017-09-02T22:22:24.963Z,86.90
2017-09-02T22:24:52.361Z,87.41
2017-09-02T22:27:19.911Z,87.66
2017-09-02T22:29:47.310Z,87.29
2017-09-02T22:32:14.715Z,87.17
2017-09-02T22:34:42.261Z,86.74
2017-09-02T22:37:09.663Z,86.62
2017-09-02T22:39:37.067Z,86.62
2017-09-02T22:42:04.496Z,86.59
2017-09-02T22:44:31.896Z,86.69
2017-09-02T22:46:59.311Z,86.60
2017-09-02T22:49:26.858Z,86.59
2017-09-02T22:51:54.260Z,86.39
2017-09-02T22:54:21.659Z,86.12
2017-09-02T22:56:49.226Z,86.17
2017-09-02T22:59:16.614Z,86.31
2017-09-02T23:01:44.022Z,86.33
2017-09-02T23:04:11.591Z,86.25
2017-09-02T23:06:38.982Z,86.39
2017-09-02T23:09:06.378Z,86.74
2017-09-02T23:11:33.799Z,88.22
2017-09-02T23:14:01.206Z,88.41
2017-09-02T23:16:28.595Z,87.95
2017-09-02T23:18:56.319Z,87.65
2017-09-02T23:21:23.711Z,87.72
2017-09-02T23:23:51.107Z,88.00
2017-09-02T23:26:18.661Z,88.16
2017-09-02T23:28:46.063Z,88.44
2017-09-02T23:31:13.446Z,88.47
2017-09-02T23:33:40.892Z,88.83
2017-09-02T23:36:08.292Z,88.95
2017-09-02T23:38:35.690Z,88.74
2017-09-02T23:41:03.242Z,88.43
2017-09-02T23:43:30.629Z,88.39
2017-09-02T23:45:58.034Z,88.76
2017-09-02T23:48:25.440Z,88.64
2017-09-02T23:50:52.840Z,88.69
2017-09-02T23:53:20.238Z,88.91
2017-09-02T23:55:47.975Z,89.74
2017-09-02T23:58:15.378Z,89.54
